Time;durP1;ratioP1;P1;durP2;ratioP2;P2;SDS_P1;SDS_P2;PMS_P1;PMS_P2;Temp;Humidity;BMP_temperature;BMP_pressure;BME280_temperature;BME280_humidity;BME280_pressure;Samples;Min_cycle;Max_cycle;Signal;HPM_P1;HPM_P2
2020/12/13 00:01:31;;;;;;;38.22;31.33;;;;;;;10.55;67.11;100531.13;5041250;28;20048;-78
2020/12/13 00:03:57;;;;;;;35.60;31.05;;;;;;;10.54;67.17;100529.44;5056908;28;20033;-80
2020/12/13 00:06:22;;;;;;;37.88;33.05;;;;;;;10.54;67.05;100532.16;5061737;28;20037;-79
2020/12/13 00:08:48;;;;;;;33.10;28.13;;;;;;;10.59;67.09;100528.84;5039615;28;20380;-78
2020/12/13 00:11:16;;;;;;;34.63;29.45;;;;;;;10.59;66.96;100526.13;5060970;28;20311;-81
2020/12/13 00:13:42;;;;;;;33.08;26.42;;;;;;;10.56;67.09;100532.78;5057873;28;20071;-81
2020/12/13 00:16:08;;;;;;;41.30;29.23;;;;;;;10.48;67.13;100530.25;5058965;28;20281;-81
2020/12/13 00:18:35;;;;;;;32.65;22.95;;;;;;;10.51;67.19;100538.00;5039988;28;20037;-81
2020/12/13 00:21:00;;;;;;;30.75;24.95;;;;;;;10.51;67.18;100535.28;5059388;28;20067;-81
2020/12/13 00:23:26;;;;;;;30.52;23.75;;;;;;;10.54;66.93;100531.34;5037827;28;20040;-81
2020/12/13 00:25:51;;;;;;;32.78;24.70;;;;;;;10.49;67.02;100525.69;5059179;28;20590;-80
2020/12/13 00:28:17;;;;;;;36.70;27.40;;;;;;;10.43;67.13;100527.31;5042921;28;20036;-81
2020/12/13 00:30:42;;;;;;;36.50;28.27;;;;;;;10.42;67.20;100525.63;5057603;28;20028;-80
2020/12/13 00:33:07;;;;;;;35.08;27.10;;;;;;;10.43;67.19;100521.06;5039742;28;20039;-80
2020/12/13 00:35:33;;;;;;;32.53;24.60;;;;;;;10.41;67.23;100520.41;5041944;28;20370;-80
2020/12/13 00:37:58;;;;;;;34.90;26.80;;;;;;;10.39;67.40;100516.03;5053327;28;20039;-80
2020/12/13 00:40:24;;;;;;;43.95;31.45;;;;;;;10.35;67.50;100520.19;5058368;28;20043;-80
2020/12/13 00:42:49;;;;;;;34.58;25.73;;;;;;;10.41;67.23;100526.69;5043693;28;20520;-80
2020/12/13 00:45:14;;;;;;;42.45;28.38;;;;;;;10.39;67.26;100531.47;5039259;28;20029;-80
2020/12/13 00:47:40;;;;;;;40.05;29.63;;;;;;;10.40;67.21;100533.16;5060973;28;20062;-80
2020/12/13 00:50:05;;;;;;;37.90;30.23;;;;;;;10.41;67.12;100540.28;5040749;28;20167;-80
2020/12/13 00:52:31;;;;;;;39.85;29.17;;;;;;;10.39;67.28;100537.78;5065361;28;20036;-80
2020/12/13 00:54:56;;;;;;;41.55;27.00;;;;;;;10.41;67.19;100544.88;5047661;28;20071;-80
2020/12/13 00:57:24;;;;;;;40.95;28.67;;;;;;;10.41;67.06;100547.59;5066664;28;20047;-79
2020/12/13 00:59:50;;;;;;;32.50;24.63;;;;;;;10.36;67.11;100538.19;5067697;28;20068;-80
2020/12/13 01:02:15;;;;;;;33.28;25.70;;;;;;;10.35;67.10;100547.38;5062755;28;20051;-80
2020/12/13 01:04:40;;;;;;;36.50;28.35;;;;;;;10.37;67.14;100549.88;5067746;28;20041;-80
2020/12/13 01:07:06;;;;;;;37.05;29.88;;;;;;;10.33;67.16;100560.34;5063645;28;20475;-80
2020/12/13 01:09:31;;;;;;;40.22;30.60;;;;;;;10.34;67.17;100567.41;5067811;28;20040;-79
2020/12/13 01:11:57;;;;;;;39.17;27.73;;;;;;;10.36;67.17;100567.22;5046691;28;20435;-79
2020/12/13 01:14:24;;;;;;;37.33;28.35;;;;;;;10.34;67.17;100562.00;5068199;28;20398;-79
2020/12/13 01:16:51;;;;;;;37.13;28.25;;;;;;;10.36;67.11;100569.94;5064674;28;20020;-79
2020/12/13 01:19:16;;;;;;;38.38;29.00;;;;;;;10.33;67.26;100557.63;5066127;28;20136;-80
2020/12/13 01:21:41;;;;;;;42.83;32.78;;;;;;;10.38;67.30;100568.72;5063704;28;20028;-80
2020/12/13 01:24:07;;;;;;;40.13;31.17;;;;;;;10.37;67.12;100571.63;5061111;28;20029;-80
2020/12/13 01:26:32;;;;;;;35.65;27.50;;;;;;;10.35;67.24;100582.69;5046254;28;20040;-80
2020/12/13 01:28:58;;;;;;;36.58;28.98;;;;;;;10.34;67.21;100588.34;5062065;28;20037;-80
2020/12/13 01:31:23;;;;;;;42.85;30.58;;;;;;;10.32;67.09;100593.13;5062765;28;20718;-80
2020/12/13 01:33:51;;;;;;;38.65;31.13;;;;;;;10.28;67.05;100589.13;5065205;28;20441;-79
2020/12/13 01:36:18;;;;;;;43.20;34.97;;;;;;;10.26;66.90;100594.75;5066365;28;20024;-79
2020/12/13 01:38:44;;;;;;;39.67;32.42;;;;;;;10.15;67.10;100585.28;5059622;28;20230;-79
2020/12/13 01:41:10;;;;;;;36.13;28.45;;;;;;;10.14;67.03;100599.06;5053303;28;20061;-80
2020/12/13 01:43:36;;;;;;;36.90;26.42;;;;;;;10.08;67.03;100599.88;5047797;28;20028;-80
2020/12/13 01:46:02;;;;;;;37.72;26.50;;;;;;;10.04;67.06;100604.88;5066840;28;20102;-79
2020/12/13 01:48:28;;;;;;;37.58;27.80;;;;;;;9.99;67.08;100610.91;5048736;28;20031;-80
2020/12/13 01:53:29;;;;;;;47.05;33.92;;;;;;;9.86;67.04;100603.47;5070879;28;20783;-79
2020/12/13 01:55:58;;;;;;;40.63;31.48;;;;;;;9.81;67.03;100611.38;5069712;28;20391;-79
2020/12/13 01:58:26;;;;;;;40.20;30.38;;;;;;;9.76;66.91;100613.00;5051583;28;20024;-80
2020/12/13 02:00:54;;;;;;;38.50;29.73;;;;;;;9.72;67.13;100611.72;5051498;28;20044;-79
2020/12/13 02:03:22;;;;;;;39.35;29.85;;;;;;;9.60;67.28;100608.69;5066899;28;20880;-79
2020/12/13 02:05:57;;;;;;;41.80;30.73;;;;;;;9.55;67.07;100614.72;5067648;28;20440;-79
2020/12/13 02:08:23;;;;;;;41.38;31.92;;;;;;;9.61;67.02;100613.94;5067070;28;20169;-79
2020/12/13 02:10:50;;;;;;;51.22;31.85;;;;;;;9.55;66.84;100606.56;5047980;28;20028;-79
2020/12/13 02:13:15;;;;;;;47.17;35.53;;;;;;;9.57;67.07;100600.94;5048661;28;20045;-79
2020/12/13 02:15:41;;;;;;;41.00;31.52;;;;;;;9.63;67.06;100609.13;5065423;28;20032;-79
2020/12/13 02:18:06;;;;;;;115.90;36.90;;;;;;;9.63;67.35;100603.72;5050369;28;20410;-79
2020/12/13 02:20:32;;;;;;;226.93;39.88;;;;;;;9.64;67.45;100607.28;5066526;28;20036;-79
2020/12/13 02:22:57;;;;;;;110.53;29.30;;;;;;;9.60;67.20;100598.66;5048593;28;20474;-79
2020/12/13 02:25:23;;;;;;;161.50;30.15;;;;;;;9.44;67.37;100601.69;5046962;28;20097;-79
2020/12/13 02:27:49;;;;;;;21.35;18.05;;;;;;;9.50;67.01;100614.47;5067447;28;20047;-79
2020/12/13 02:30:15;;;;;;;45.70;19.70;;;;;;;9.46;67.09;100614.00;5065561;28;20039;-80
2020/12/13 02:32:42;;;;;;;36.17;22.52;;;;;;;9.39;67.09;100613.13;5046292;28;20071;-79
2020/12/13 02:35:09;;;;;;;30.58;21.25;;;;;;;9.42;66.85;100623.59;5069340;28;20039;-79
2020/12/13 02:37:34;;;;;;;22.10;18.20;;;;;;;9.47;67.16;100631.16;5069229;28;20032;-79
2020/12/13 02:40:00;;;;;;;19.77;17.55;;;;;;;9.44;66.96;100632.38;5065162;28;20529;-79
2020/12/13 02:42:26;;;;;;;19.27;17.38;;;;;;;9.46;66.81;100638.44;5065920;28;20036;-79
2020/12/13 02:44:51;;;;;;;21.77;19.58;;;;;;;9.44;66.72;100640.50;5066370;28;20020;-79
2020/12/13 02:47:17;;;;;;;22.25;18.77;;;;;;;9.42;66.69;100648.00;5047599;28;20082;-79
2020/12/13 02:49:42;;;;;;;25.15;22.55;;;;;;;9.38;66.83;100656.75;5049086;28;20020;-79
2020/12/13 02:52:09;;;;;;;44.88;26.38;;;;;;;9.35;66.82;100655.25;5065831;28;20707;-79
2020/12/13 02:54:34;;;;;;;28.50;26.00;;;;;;;9.32;66.78;100648.31;5068701;28;20072;-79
2020/12/13 02:57:00;;;;;;;24.63;22.50;;;;;;;9.34;66.75;100658.97;5046766;28;20028;-78
2020/12/13 02:59:25;;;;;;;26.10;23.85;;;;;;;9.27;66.63;100658.91;5066468;28;20040;-79
2020/12/13 03:01:51;;;;;;;28.85;26.27;;;;;;;9.28;66.73;100663.31;5066551;28;20501;-79
2020/12/13 03:04:16;;;;;;;24.17;22.08;;;;;;;9.26;66.68;100665.38;5066934;28;20040;-79
2020/12/13 03:06:42;;;;;;;26.70;24.25;;;;;;;9.21;66.57;100665.13;5047936;28;20025;-79
2020/12/13 03:09:07;;;;;;;26.60;24.23;;;;;;;9.27;66.83;100667.06;5029484;28;20040;-79
2020/12/13 03:11:33;;;;;;;25.40;23.00;;;;;;;9.28;66.80;100660.63;5064681;28;20036;-79
2020/12/13 03:13:59;;;;;;;30.17;27.25;;;;;;;9.32;66.80;100663.78;5048751;28;20032;-79
2020/12/13 03:16:24;;;;;;;30.60;27.80;;;;;;;9.35;66.70;100676.13;5067303;28;20029;-78
2020/12/13 03:18:49;;;;;;;33.28;29.80;;;;;;;9.39;66.78;100669.25;5046384;28;21081;-78
2020/12/13 03:21:15;;;;;;;29.85;26.95;;;;;;;9.39;66.75;100669.25;5065450;28;20044;-78
2020/12/13 03:23:40;;;;;;;30.10;27.13;;;;;;;9.48;66.85;100671.69;5037617;28;20059;-78
2020/12/13 03:26:06;;;;;;;33.35;29.73;;;;;;;9.53;66.96;100676.53;5046417;28;20501;-79
2020/12/13 03:28:31;;;;;;;37.17;33.55;;;;;;;9.50;66.84;100669.59;5049228;28;20077;-78
2020/12/13 03:30:57;;;;;;;39.15;35.42;;;;;;;9.62;66.86;100688.94;5060015;28;20116;-80
2020/12/13 03:33:22;;;;;;;31.60;28.33;;;;;;;9.68;66.93;100695.44;5056867;28;20037;-79
2020/12/13 03:35:48;;;;;;;54.10;29.80;;;;;;;9.68;67.45;100685.44;5032113;28;20029;-79
2020/12/13 03:38:14;;;;;;;55.00;31.75;;;;;;;9.72;67.85;100690.47;5061685;28;20099;-79
2020/12/13 03:40:39;;;;;;;37.40;28.85;;;;;;;9.81;67.55;100687.44;5045370;28;20045;-79
2020/12/13 03:43:05;;;;;;;32.08;28.45;;;;;;;9.89;67.32;100699.19;5027961;28;20082;-79
2020/12/13 03:45:30;;;;;;;40.25;33.65;;;;;;;9.91;67.13;100694.41;5028441;28;20067;-79
2020/12/13 03:47:56;;;;;;;33.03;29.27;;;;;;;9.95;67.16;100704.69;5035183;28;20039;-80
2020/12/13 03:50:21;;;;;;;39.05;30.55;;;;;;;9.98;67.02;100708.91;5045215;28;20119;-79
2020/12/13 03:52:47;;;;;;;32.90;29.40;;;;;;;9.97;66.99;100699.88;5029072;28;20491;-79
2020/12/13 03:55:12;;;;;;;37.97;34.03;;;;;;;10.00;67.02;100704.09;5010723;28;20037;-79
2020/12/13 03:57:37;;;;;;;29.98;26.85;;;;;;;10.03;67.02;100709.97;5042545;28;20022;-79
2020/12/13 04:00:05;;;;;;;31.83;28.40;;;;;;;10.04;66.95;100708.13;5030820;28;20399;-79
2020/12/13 04:02:30;;;;;;;32.22;29.00;;;;;;;10.06;66.86;100714.19;5045740;28;20036;-79
2020/12/13 04:04:56;;;;;;;28.52;25.50;;;;;;;9.99;66.94;100700.53;5045626;28;20029;-79
2020/12/13 04:07:21;;;;;;;36.05;30.20;;;;;;;10.04;66.87;100721.69;5025717;28;20036;-79
2020/12/13 04:09:46;;;;;;;35.42;31.52;;;;;;;10.08;66.96;100724.84;5046628;28;20376;-79
2020/12/13 04:12:12;;;;;;;27.42;23.42;;;;;;;10.03;66.95;100718.13;5046578;28;20048;-79
2020/12/13 04:14:37;;;;;;;29.60;25.00;;;;;;;10.07;66.80;100718.59;5029335;28;20072;-79
2020/12/13 04:17:03;;;;;;;29.50;26.30;;;;;;;10.07;66.85;100723.16;5027857;28;20425;-79
2020/12/13 04:19:31;;;;;;;31.05;25.58;;;;;;;10.09;66.86;100731.97;5044431;28;20080;-79
2020/12/13 04:21:57;;;;;;;29.27;26.08;;;;;;;10.14;67.05;100729.50;5026450;28;20108;-79
2020/12/13 04:24:22;;;;;;;32.63;28.42;;;;;;;10.12;67.01;100726.97;5028499;28;20033;-78
2020/12/13 04:26:47;;;;;;;32.13;27.95;;;;;;;10.16;66.96;100727.41;5049681;28;20373;-78
2020/12/13 04:29:13;;;;;;;39.83;35.00;;;;;;;10.17;67.04;100731.81;5043671;28;20747;-79
2020/12/13 04:31:38;;;;;;;36.60;32.67;;;;;;;10.23;67.31;100732.94;5027514;28;20048;-79
2020/12/13 04:34:03;;;;;;;31.13;27.17;;;;;;;10.25;67.01;100731.66;5043380;28;20032;-80
2020/12/13 04:36:29;;;;;;;29.13;24.10;;;;;;;10.27;66.99;100723.31;5046294;28;20029;-81
2020/12/13 04:38:54;;;;;;;36.75;33.05;;;;;;;10.21;67.10;100725.81;5036036;28;20056;-79
2020/12/13 04:41:20;;;;;;;33.17;28.48;;;;;;;10.16;67.27;100724.69;5064137;28;20036;-80
2020/12/13 04:43:46;;;;;;;26.70;23.60;;;;;;;10.16;67.13;100721.97;5065755;28;20036;-79
2020/12/13 04:46:11;;;;;;;28.23;25.13;;;;;;;10.14;67.08;100718.63;5062739;28;20443;-80
2020/12/13 04:48:37;;;;;;;35.65;32.00;;;;;;;10.20;67.18;100734.97;5067493;28;20037;-80
2020/12/13 04:51:03;;;;;;;29.25;26.20;;;;;;;10.20;66.93;100739.59;5047117;28;20099;-80
2020/12/13 04:53:28;;;;;;;29.50;26.30;;;;;;;10.23;67.09;100738.38;5065214;28;20043;-79
2020/12/13 04:55:56;;;;;;;32.72;29.52;;;;;;;10.15;66.92;100740.19;5064028;28;20028;-79
2020/12/13 04:58:23;;;;;;;27.48;24.67;;;;;;;10.23;66.97;100744.63;5061694;28;20120;-79
2020/12/13 05:01:07;;;;;;;31.25;27.95;;;;;;;10.24;66.89;100745.47;5062720;28;20110;-79
2020/12/13 05:03:34;;;;;;;29.00;26.10;;;;;;;10.21;66.93;100744.81;5064236;28;20119;-79
2020/12/13 05:06:01;;;;;;;30.42;27.25;;;;;;;10.21;67.13;100746.72;5042587;28;20109;-79
2020/12/13 05:08:27;;;;;;;24.55;22.05;;;;;;;10.24;67.02;100740.03;5063263;28;20032;-80
2020/12/13 05:10:53;;;;;;;29.55;26.58;;;;;;;10.22;66.98;100737.50;5067874;28;20360;-79
2020/12/13 05:13:18;;;;;;;24.65;22.02;;;;;;;10.18;67.05;100737.06;5055633;28;20035;-80
2020/12/13 05:15:43;;;;;;;25.80;23.00;;;;;;;10.23;67.15;100744.63;5065300;28;20094;-80
2020/12/13 05:18:09;;;;;;;27.13;23.95;;;;;;;10.24;67.17;100748.19;5062472;28;20024;-80
2020/12/13 05:20:34;;;;;;;31.35;28.17;;;;;;;10.25;67.35;100747.97;5064423;28;20036;-80
2020/12/13 05:23:01;;;;;;;29.52;26.63;;;;;;;10.29;67.18;100754.72;5065808;28;20048;-79
2020/12/13 05:25:37;;;;;;;27.83;24.98;;;;;;;10.32;67.29;100751.59;5062886;28;20061;-80
2020/12/13 05:28:08;;;;;;;25.80;23.20;;;;;;;10.33;67.12;100753.31;5062769;28;20089;-80
2020/12/13 05:30:44;;;;;;;31.13;27.85;;;;;;;10.29;67.17;100745.72;5064846;28;20086;-80
2020/12/13 05:33:20;;;;;;;25.55;22.75;;;;;;;10.35;67.21;100743.09;5047189;28;20039;-81
2020/12/13 05:35:46;;;;;;;32.17;28.77;;;;;;;10.33;67.05;100737.03;5046021;28;20108;-81
2020/12/13 05:38:14;;;;;;;28.50;24.88;;;;;;;10.38;66.81;100748.13;5068016;28;20410;-80
2020/12/13 05:40:41;;;;;;;31.60;28.30;;;;;;;10.31;67.19;100736.31;5071626;28;20034;-80
2020/12/13 05:43:21;;;;;;;36.40;28.45;;;;;;;10.33;67.45;100745.16;5067620;28;20036;-81
2020/12/13 05:53:37;;;;;;;37.78;33.95;;;;;;;10.46;67.37;100747.13;5065195;28;20047;-80
2020/12/13 05:56:04;;;;;;;33.05;29.63;;;;;;;10.51;67.28;100749.25;5067611;28;20037;-80
2020/12/13 05:58:29;;;;;;;35.22;31.13;;;;;;;10.50;67.46;100758.44;5047185;28;20029;-81
2020/12/13 06:00:56;;;;;;;33.90;29.38;;;;;;;10.49;67.57;100745.91;5063141;28;20036;-81
2020/12/13 06:03:48;;;;;;;32.40;26.92;;;;;;;10.51;67.48;100746.53;5047756;28;20419;-79
2020/12/13 06:06:20;;;;;;;40.97;36.45;;;;;;;10.55;67.50;100753.25;5066447;28;20032;-80
2020/12/13 06:09:07;;;;;;;39.35;33.53;;;;;;;10.57;67.51;100762.91;5068317;28;20539;-79
2020/12/13 06:11:35;;;;;;;34.03;30.38;;;;;;;10.61;67.50;100762.50;5067244;28;20115;-80
2020/12/13 06:14:10;;;;;;;30.25;25.67;;;;;;;10.65;67.51;100770.06;5064487;28;20032;-80
2020/12/13 06:16:36;;;;;;;35.65;29.80;;;;;;;10.59;67.49;100745.56;5049943;28;20033;-81
2020/12/13 06:19:04;;;;;;;31.17;25.80;;;;;;;10.68;67.60;100758.78;5047558;28;20064;-81
2020/12/13 06:21:30;;;;;;;39.45;35.25;;;;;;;10.70;67.46;100762.13;5065090;28;20032;-80
2020/12/13 06:23:56;;;;;;;32.85;28.45;;;;;;;10.75;67.54;100770.56;5066421;28;20021;-80
2020/12/13 06:26:23;;;;;;;33.13;29.58;;;;;;;10.74;67.13;100749.00;5050785;28;20054;-80
2020/12/13 06:28:48;;;;;;;35.38;31.20;;;;;;;10.76;67.55;100763.22;5066043;28;20057;-80
2020/12/13 06:31:16;;;;;;;34.50;28.33;;;;;;;10.78;67.37;100763.03;5051010;28;20033;-79
2020/12/13 06:33:42;;;;;;;35.97;30.25;;;;;;;10.79;67.57;100759.28;5067921;28;20032;-80
2020/12/13 06:36:08;;;;;;;36.35;32.60;;;;;;;10.82;67.21;100767.88;5064166;28;20470;-80
2020/12/13 06:38:35;;;;;;;32.13;25.27;;;;;;;10.78;67.27;100779.34;5066774;28;20045;-80
2020/12/13 06:41:12;;;;;;;27.85;23.10;;;;;;;10.80;67.34;100774.53;5047222;28;20131;-80
2020/12/13 06:43:56;;;;;;;32.65;26.08;;;;;;;10.79;67.61;100779.16;5061253;28;20100;-79
2020/12/13 06:46:23;;;;;;;33.17;26.10;;;;;;;10.79;67.82;100783.75;5064977;28;20067;-80
2020/12/13 06:48:48;;;;;;;34.97;30.77;;;;;;;10.79;67.92;100783.75;5046926;28;20048;-80
2020/12/13 06:51:24;;;;;;;35.60;28.63;;;;;;;10.83;67.95;100780.44;5062919;28;20033;-80
2020/12/13 06:53:51;;;;;;;36.50;30.05;;;;;;;10.85;67.83;100772.91;5068111;28;20021;-80
2020/12/13 06:56:18;;;;;;;37.30;30.83;;;;;;;10.81;67.79;100770.78;5047274;28;20507;-80
2020/12/13 06:58:56;;;;;;;34.65;28.05;;;;;;;10.80;67.61;100767.25;5065077;28;20082;-78
2020/12/13 07:01:34;;;;;;;28.83;23.90;;;;;;;10.80;67.50;100769.09;5068543;28;20071;-79
2020/12/13 07:04:22;;;;;;;30.48;24.35;;;;;;;10.73;67.60;100778.06;5065873;28;20017;-78
2020/12/13 07:06:54;;;;;;;27.27;23.65;;;;;;;10.67;67.43;100770.69;5046346;28;20039;-78
2020/12/13 07:09:21;;;;;;;29.95;25.83;;;;;;;10.61;67.22;100786.97;5050185;28;20037;-78
2020/12/13 07:11:49;;;;;;;34.83;31.25;;;;;;;10.57;67.14;100794.69;5065646;28;20127;-78
2020/12/13 07:14:16;;;;;;;36.60;32.65;;;;;;;10.45;67.41;100788.13;5066564;28;20016;-78
2020/12/13 07:16:46;;;;;;;31.52;24.85;;;;;;;10.42;67.74;100802.94;5042367;28;20047;-78
2020/12/13 07:19:14;;;;;;;28.35;25.30;;;;;;;10.44;67.62;100798.16;5067119;28;20028;-78
2020/12/13 07:21:41;;;;;;;28.98;25.88;;;;;;;10.44;67.62;100811.75;5063124;28;20024;-79
2020/12/13 07:24:08;;;;;;;28.05;23.95;;;;;;;10.42;67.54;100810.25;5064878;28;20044;-78
2020/12/13 07:26:35;;;;;;;28.08;22.65;;;;;;;10.41;67.49;100811.28;5046665;28;20025;-79
2020/12/13 07:29:02;;;;;;;27.13;22.67;;;;;;;10.43;67.49;100810.06;5047581;28;20549;-78
2020/12/13 07:31:38;;;;;;;26.05;22.40;;;;;;;10.41;67.41;100819.44;5047058;28;20029;-78
2020/12/13 07:34:05;;;;;;;24.33;21.38;;;;;;;10.43;67.33;100820.94;5064392;28;20049;-77
2020/12/13 07:36:31;;;;;;;21.75;18.65;;;;;;;10.42;67.35;100818.41;5064721;28;20044;-77
2020/12/13 07:38:57;;;;;;;24.50;20.50;;;;;;;10.43;67.04;100826.38;5061817;28;20049;-78
2020/12/13 07:41:25;;;;;;;29.80;26.75;;;;;;;10.43;67.28;100833.69;5064308;28;20437;-78
2020/12/13 07:43:52;;;;;;;24.20;21.60;;;;;;;10.41;66.95;100825.75;5059945;28;20029;-77
2020/12/13 07:46:18;;;;;;;27.17;23.67;;;;;;;10.41;67.28;100816.72;5046316;28;20036;-78
2020/12/13 07:48:43;;;;;;;30.88;27.55;;;;;;;10.43;67.35;100820.13;5045420;28;20375;-77
2020/12/13 07:51:10;;;;;;;23.25;20.05;;;;;;;10.39;67.22;100817.78;5055253;28;20036;-77
2020/12/13 07:53:35;;;;;;;23.65;21.08;;;;;;;10.39;67.21;100823.22;5045847;28;20039;-78
2020/12/13 07:56:00;;;;;;;25.55;22.30;;;;;;;10.41;67.14;100830.31;5060095;28;20025;-78
2020/12/13 07:58:26;;;;;;;24.17;20.50;;;;;;;10.44;67.12;100829.94;5043465;28;20103;-78
2020/12/13 08:00:51;;;;;;;28.42;25.38;;;;;;;10.47;67.26;100832.25;5059555;28;20552;-78
2020/12/13 08:03:17;;;;;;;28.55;25.52;;;;;;;10.51;67.30;100836.28;5044953;28;20032;-78
2020/12/13 08:05:44;;;;;;;24.92;21.50;;;;;;;10.48;67.32;100833.94;5043208;28;20043;-78
2020/12/13 08:08:09;;;;;;;25.65;22.48;;;;;;;10.51;67.17;100844.44;5057523;28;20119;-78
2020/12/13 08:10:35;;;;;;;26.17;23.45;;;;;;;10.59;67.48;100849.72;5042439;28;20037;-79
2020/12/13 08:13:03;;;;;;;24.17;21.42;;;;;;;10.62;67.36;100854.75;5059987;28;20120;-78
2020/12/13 08:15:28;;;;;;;27.85;24.80;;;;;;;10.68;67.56;100858.59;5061931;28;20206;-78
2020/12/13 08:18:03;;;;;;;29.63;25.23;;;;;;;10.70;67.72;100860.06;5062149;28;20653;-79
2020/12/13 08:20:31;;;;;;;35.22;26.05;;;;;;;10.76;67.77;100858.44;5063864;28;20067;-79
2020/12/13 08:22:59;;;;;;;31.30;23.73;;;;;;;10.77;67.67;100851.97;5042671;28;20036;-79
2020/12/13 08:25:25;;;;;;;26.38;21.70;;;;;;;10.85;67.45;100859.97;5054727;28;20039;-79
2020/12/13 08:27:51;;;;;;;27.10;23.15;;;;;;;10.87;67.39;100862.50;5044894;28;20032;-79
2020/12/13 08:30:18;;;;;;;27.60;23.27;;;;;;;10.97;67.49;100864.84;5060214;28;20038;-78
2020/12/13 08:32:44;;;;;;;32.05;28.67;;;;;;;10.99;67.61;100870.97;5061231;28;20127;-79
2020/12/13 08:35:18;;;;;;;30.45;27.33;;;;;;;11.01;67.69;100866.97;5048122;28;20867;-78
2020/12/13 08:37:56;;;;;;;28.40;25.08;;;;;;;11.06;67.92;100875.41;5059790;28;20115;-80
2020/12/13 08:40:44;;;;;;;27.48;23.40;;;;;;;11.11;67.74;100870.19;5064031;28;20085;-78
2020/12/13 08:43:17;;;;;;;30.70;27.52;;;;;;;11.16;67.63;100875.03;5063290;28;20506;-79
2020/12/13 08:45:43;;;;;;;26.50;23.67;;;;;;;11.23;67.97;100881.38;5063107;28;20040;-77
2020/12/13 08:48:08;;;;;;;29.33;26.15;;;;;;;11.51;67.72;100885.94;5061519;28;20106;-78
2020/12/13 08:50:40;;;;;;;34.67;28.77;;;;;;;12.23;68.05;100880.97;5058576;28;20039;-78
2020/12/13 08:53:24;;;;;;;25.67;22.55;;;;;;;12.39;67.05;100879.78;5043557;28;20041;-78
2020/12/13 08:56:19;;;;;;;27.85;22.48;;;;;;;12.55;67.24;100892.16;5061620;28;20033;-80
2020/12/13 08:58:47;;;;;;;26.20;22.83;;;;;;;12.88;66.73;100894.91;5039662;28;20045;-80
2020/12/13 09:01:13;;;;;;;23.33;18.73;;;;;;;13.04;66.48;100892.81;5061088;28;20036;-78
2020/12/13 09:03:38;;;;;;;23.85;19.83;;;;;;;12.89;65.77;100896.56;5060883;28;20029;-81
2020/12/13 09:06:04;;;;;;;31.48;25.80;;;;;;;12.71;65.36;100904.53;5063292;28;20035;-80
2020/12/13 09:08:29;;;;;;;29.42;20.15;;;;;;;12.64;65.67;100899.09;5063065;28;20509;-80
2020/12/13 09:10:55;;;;;;;23.35;20.92;;;;;;;12.68;66.00;100897.63;5057471;28;20051;-81
2020/12/13 09:13:20;;;;;;;27.65;20.85;;;;;;;12.62;65.97;100903.06;5065306;28;20029;-77
2020/12/13 09:15:46;;;;;;;22.77;19.42;;;;;;;12.66;66.01;100904.34;5061555;28;20098;-80
2020/12/13 09:18:11;;;;;;;30.25;20.20;;;;;;;12.68;66.06;100904.97;5060233;28;20124;-80
2020/12/13 09:20:37;;;;;;;24.98;21.45;;;;;;;12.89;66.32;100904.75;5063843;28;20402;-81
2020/12/13 09:23:07;;;;;;;25.10;19.45;;;;;;;13.07;66.32;100903.28;5066114;28;20032;-79
2020/12/13 09:25:43;;;;;;;26.13;21.93;;;;;;;13.30;66.04;100904.72;5061866;28;20374;-80
2020/12/13 09:28:10;;;;;;;26.45;15.63;;;;;;;13.38;65.64;100916.31;5062716;28;20079;-80
2020/12/13 09:30:36;;;;;;;28.95;18.67;;;;;;;13.60;65.64;100919.59;5065152;28;20063;-79
2020/12/13 09:33:03;;;;;;;19.60;15.15;;;;;;;13.43;65.05;100923.84;5065122;28;20029;-79
2020/12/13 09:35:30;;;;;;;21.85;14.68;;;;;;;13.28;65.51;100926.78;5065928;28;20024;-79
2020/12/13 09:37:56;;;;;;;21.25;14.82;;;;;;;13.28;65.47;100926.78;5063717;28;20147;-79
2020/12/13 09:40:22;;;;;;;17.33;13.73;;;;;;;13.22;65.85;100928.50;5062336;28;20567;-80
2020/12/13 09:42:49;;;;;;;18.15;12.10;;;;;;;13.29;65.94;100933.09;5061676;28;20040;-80
2020/12/13 09:45:14;;;;;;;26.05;13.57;;;;;;;13.30;65.63;100929.31;5063128;28;20083;-80
2020/12/13 09:47:39;;;;;;;18.90;13.02;;;;;;;13.46;66.10;100931.63;5061561;28;20040;-79
2020/12/13 09:50:05;;;;;;;23.10;14.05;;;;;;;13.90;65.08;100938.22;5060056;28;20442;-79
2020/12/13 09:52:31;;;;;;;24.23;14.25;;;;;;;13.92;64.61;100946.22;5062576;28;20028;-80
2020/12/13 09:54:57;;;;;;;22.33;14.80;;;;;;;13.99;64.08;100930.59;5066716;28;20191;-78
2020/12/13 09:57:23;;;;;;;21.48;13.75;;;;;;;13.91;64.32;100928.13;5060107;28;20140;-78
2020/12/13 09:59:48;;;;;;;24.02;14.45;;;;;;;14.16;64.08;100925.47;5060252;28;20393;-78
2020/12/13 10:02:14;;;;;;;20.90;16.35;;;;;;;14.57;63.77;100915.97;5063635;28;20461;-79
2020/12/13 10:04:39;;;;;;;25.63;13.13;;;;;;;14.91;62.96;100935.78;5032077;28;20025;-78
2020/12/13 10:09:45;;;;;;;21.77;13.98;;;;;;;15.21;60.54;100922.25;5063710;28;20052;-78
2020/12/13 10:12:10;;;;;;;15.57;11.90;;;;;;;15.17;61.01;100926.50;5060846;28;20082;-79
2020/12/13 10:14:36;;;;;;;19.73;11.65;;;;;;;15.28;60.62;100930.38;5065577;28;20410;-80
2020/12/13 10:17:02;;;;;;;22.13;12.35;;;;;;;15.46;59.63;100931.47;5065244;28;20037;-78
2020/12/13 10:19:28;;;;;;;20.38;11.82;;;;;;;15.79;58.88;100927.56;5059381;28;20021;-79
2020/12/13 10:21:53;;;;;;;24.88;13.50;;;;;;;15.93;58.20;100931.81;5046058;28;20039;-79
2020/12/13 10:24:19;;;;;;;22.30;13.48;;;;;;;15.92;57.20;100930.13;5058873;28;20044;-79
2020/12/13 10:26:44;;;;;;;20.20;11.18;;;;;;;15.34;57.20;100924.00;5060177;28;20040;-77
2020/12/13 10:29:10;;;;;;;20.10;14.05;;;;;;;15.28;57.90;100913.13;5062506;28;20044;-78
2020/12/13 10:31:38;;;;;;;14.55;10.60;;;;;;;15.10;58.20;100916.66;5064963;28;20461;-77
2020/12/13 10:34:06;;;;;;;15.45;10.30;;;;;;;14.88;58.59;100914.31;5062479;28;20554;-78
2020/12/13 10:36:33;;;;;;;16.15;10.18;;;;;;;14.90;59.07;100914.91;5061985;28;20457;-79
2020/12/13 10:38:58;;;;;;;20.95;11.32;;;;;;;14.73;59.02;100909.16;5064332;28;20040;-78
2020/12/13 10:41:24;;;;;;;19.00;10.13;;;;;;;14.58;59.52;100911.34;5059898;28;20040;-78
2020/12/13 10:43:50;;;;;;;15.50;8.52;;;;;;;14.65;59.86;100906.69;5063660;28;20464;-79
2020/12/13 10:46:16;;;;;;;18.60;8.52;;;;;;;14.60;59.19;100912.84;5048875;28;20039;-78
2020/12/13 10:48:42;;;;;;;12.40;8.25;;;;;;;14.55;59.65;100909.91;5065229;28;20042;-78
2020/12/13 10:51:07;;;;;;;16.38;8.73;;;;;;;14.54;59.42;100907.38;5065447;28;20127;-78
2020/12/13 10:53:33;;;;;;;11.57;10.32;;;;;;;14.58;59.58;100911.34;5048637;28;20040;-78
2020/12/13 10:55:58;;;;;;;16.30;11.60;;;;;;;14.66;59.00;100911.94;5062591;28;20040;-79
2020/12/13 10:58:23;;;;;;;16.63;10.00;;;;;;;14.64;59.16;100907.75;5065893;28;20035;-79
2020/12/13 11:00:49;;;;;;;14.52;10.20;;;;;;;14.49;58.46;100917.09;5065744;28;20032;-77
2020/12/13 11:03:15;;;;;;;16.98;10.85;;;;;;;14.48;58.83;100914.56;5065527;28;20673;-78
2020/12/13 11:05:42;;;;;;;13.82;8.15;;;;;;;14.26;59.05;100917.66;5063504;28;20032;-79
2020/12/13 11:08:08;;;;;;;18.27;8.82;;;;;;;14.29;58.80;100924.59;5065439;28;20520;-78
2020/12/13 11:10:33;;;;;;;17.88;9.00;;;;;;;14.01;59.32;100917.56;5063476;28;20495;-78
2020/12/13 11:12:59;;;;;;;17.85;8.25;;;;;;;13.84;59.51;100916.38;5016505;28;20040;-78
2020/12/13 11:15:24;;;;;;;17.02;8.82;;;;;;;13.92;59.63;100919.72;5064583;28;20040;-78
2020/12/13 11:17:50;;;;;;;22.65;9.93;;;;;;;13.87;59.72;100914.06;5062695;28;20028;-77
2020/12/13 11:20:15;;;;;;;14.57;10.68;;;;;;;13.60;60.09;100905.94;5047525;28;20476;-76
2020/12/13 11:22:40;;;;;;;16.13;9.32;;;;;;;13.63;60.41;100906.56;5063328;28;20024;-80
2020/12/13 11:25:06;;;;;;;18.90;9.13;;;;;;;13.45;60.75;100915.44;5065027;28;20032;-80